createdAt,value
2022-09-10T00:01:30.498Z,6.53
2022-09-10T00:03:59.154Z,9.02
2022-09-10T00:06:28.015Z,6.45
2022-09-10T00:08:59.850Z,11.63
2022-09-10T00:11:31.123Z,5.80
2022-09-10T00:14:03.822Z,5.35
2022-09-10T00:16:32.447Z,5.55
2022-09-10T00:19:01.400Z,12.00
2022-09-10T00:21:30.103Z,6.43
2022-09-10T00:23:58.060Z,7.97
2022-09-10T00:26:38.166Z,6.05
2022-09-10T00:29:08.383Z,5.55
2022-09-10T00:31:36.381Z,4.78
2022-09-10T00:34:05.792Z,8.35
2022-09-10T00:36:41.611Z,4.93
2022-09-10T00:39:15.584Z,3.90
2022-09-10T00:41:45.618Z,8.18
2022-09-10T00:44:40.857Z,5.93
2022-09-10T00:47:22.145Z,6.03
2022-09-10T00:50:01.272Z,4.30
2022-09-10T00:52:29.427Z,4.45
2022-09-10T00:54:59.447Z,8.98
2022-09-10T00:57:28.411Z,7.53
2022-09-10T01:00:22.289Z,8.00
2022-09-10T01:02:49.992Z,10.60
2022-09-10T01:05:18.468Z,4.30
2022-09-10T01:07:46.148Z,7.95
2022-09-10T01:10:28.950Z,6.72
2022-09-10T01:13:21.958Z,6.47
2022-09-10T01:16:01.620Z,8.52
2022-09-10T01:18:47.902Z,5.20
2022-09-10T01:21:31.067Z,6.55
2022-09-10T01:24:13.658Z,8.52
2022-09-10T01:27:02.514Z,5.30
2022-09-10T01:29:45.955Z,6.22
2022-09-10T01:32:23.651Z,8.50
2022-09-10T01:35:30.271Z,7.35
2022-09-10T01:38:01.724Z,11.43
2022-09-10T01:40:30.098Z,10.35
2022-09-10T01:43:08.218Z,10.00
2022-09-10T01:45:51.930Z,12.32
2022-09-10T01:48:22.736Z,14.10
2022-09-10T01:51:16.752Z,11.40
2022-09-10T01:54:29.426Z,14.25
2022-09-10T01:57:28.253Z,11.25
2022-09-10T02:00:09.828Z,12.98
2022-09-10T02:03:11.343Z,10.68
2022-09-10T02:05:41.798Z,7.45
2022-09-10T02:08:33.855Z,7.70
2022-09-10T02:11:06.303Z,7.88
2022-09-10T02:13:37.126Z,9.60
2022-09-10T02:16:37.824Z,6.28
2022-09-10T02:19:06.464Z,7.20
2022-09-10T02:21:34.166Z,8.35
2022-09-10T02:24:10.080Z,11.10
2022-09-10T02:26:41.084Z,10.88
2022-09-10T02:29:10.181Z,8.05
2022-09-10T02:31:39.751Z,15.45
2022-09-10T02:34:07.351Z,7.78
2022-09-10T02:36:35.889Z,7.70
2022-09-10T02:39:05.346Z,5.03
2022-09-10T02:41:37.705Z,6.68
2022-09-10T02:44:05.225Z,8.98
2022-09-10T02:46:33.056Z,6.97
2022-09-10T02:49:00.559Z,4.60
2022-09-10T02:51:30.942Z,6.40
2022-09-10T02:53:59.361Z,8.43
2022-09-10T02:56:26.896Z,7.32
2022-09-10T02:58:54.378Z,7.40
2022-09-10T03:01:25.010Z,11.48
2022-09-10T03:03:59.120Z,8.63
2022-09-10T03:06:27.557Z,8.38
2022-09-10T03:08:57.766Z,6.43
2022-09-10T03:11:27.620Z,7.13
2022-09-10T03:13:56.043Z,7.25
2022-09-10T03:16:24.504Z,9.52
2022-09-10T03:18:52.469Z,9.48
2022-09-10T03:21:22.611Z,7.55
2022-09-10T03:23:52.702Z,8.43
2022-09-10T03:26:25.630Z,5.47
2022-09-10T03:28:54.298Z,13.05
2022-09-10T03:31:25.034Z,10.07
2022-09-10T03:33:52.613Z,9.85
2022-09-10T03:36:22.858Z,4.85
2022-09-10T03:38:51.116Z,9.00
2022-09-10T03:41:18.573Z,7.55
2022-09-10T03:43:47.224Z,7.43
2022-09-10T03:46:16.107Z,4.68
2022-09-10T03:48:45.651Z,5.13
2022-09-10T03:51:13.417Z,7.90
2022-09-10T03:53:41.097Z,7.35
2022-09-10T03:56:12.944Z,9.05
2022-09-10T03:58:41.493Z,12.27
2022-09-10T04:01:10.460Z,11.70
2022-09-10T04:03:42.276Z,8.00
2022-09-10T04:06:11.234Z,7.20
2022-09-10T04:08:39.617Z,12.98
2022-09-10T04:11:10.305Z,11.38
2022-09-10T04:13:37.900Z,7.95
2022-09-10T04:16:05.618Z,12.98
2022-09-10T04:18:35.114Z,11.38
2022-09-10T04:21:03.959Z,9.13
2022-09-10T04:23:32.917Z,8.73
2022-09-10T04:26:02.428Z,9.25
2022-09-10T04:28:31.036Z,7.07
2022-09-10T04:30:59.715Z,8.13
2022-09-10T04:33:27.412Z,8.90
2022-09-10T04:35:56.390Z,4.45
2022-09-10T04:38:25.362Z,4.07
2022-09-10T04:40:52.910Z,7.93
2022-09-10T04:43:20.426Z,7.22
2022-09-10T04:45:47.930Z,4.18
2022-09-10T04:48:15.685Z,6.18
2022-09-10T04:50:59.253Z,9.15
2022-09-10T04:53:37.728Z,6.68
2022-09-10T04:56:05.592Z,6.75
2022-09-10T04:58:39.119Z,5.75
2022-09-10T05:01:08.105Z,7.07
2022-09-10T05:03:35.717Z,7.45
2022-09-10T05:06:05.222Z,6.25
2022-09-10T05:08:33.465Z,3.97
2022-09-10T05:11:03.679Z,4.00
2022-09-10T05:13:31.827Z,3.92
2022-09-10T05:16:01.642Z,6.68
2022-09-10T05:18:30.950Z,3.22
2022-09-10T05:20:58.601Z,5.55
2022-09-10T05:23:27.427Z,5.75
2022-09-10T05:25:56.830Z,5.97
2022-09-10T05:28:24.792Z,5.45
2022-09-10T05:30:52.963Z,5.97
2022-09-10T05:33:23.358Z,5.38
2022-09-10T05:35:53.921Z,2.95
2022-09-10T05:38:25.590Z,8.55
2022-09-10T05:40:54.054Z,9.45
2022-09-10T05:43:22.590Z,5.85
2022-09-10T05:45:52.339Z,4.82
2022-09-10T05:48:21.333Z,7.40
2022-09-10T05:50:50.444Z,4.28
2022-09-10T05:53:18.658Z,7.53
2022-09-10T05:55:46.186Z,9.60
2022-09-10T05:58:14.093Z,6.28
2022-09-10T06:00:45.436Z,11.25
2022-09-10T06:03:14.418Z,4.75
2022-09-10T06:05:50.491Z,13.52
2022-09-10T06:08:21.787Z,5.50
2022-09-10T06:11:00.610Z,6.88
2022-09-10T06:13:33.828Z,10.00
2022-09-10T06:16:01.989Z,6.40
2022-09-10T06:18:30.856Z,4.82
2022-09-10T06:21:11.745Z,6.43
2022-09-10T06:23:39.657Z,6.85
2022-09-10T06:26:11.126Z,3.45
2022-09-10T06:28:38.883Z,10.20
2022-09-10T06:31:09.824Z,4.65
2022-09-10T06:33:38.223Z,3.38
2022-09-10T06:36:06.658Z,4.78
2022-09-10T06:38:34.839Z,5.57
2022-09-10T06:41:05.904Z,6.32
2022-09-10T06:43:41.759Z,4.35
2022-09-10T06:46:56.675Z,6.72
2022-09-10T06:49:11.719Z,4.00
2022-09-10T06:51:41.415Z,5.97
2022-09-10T06:54:10.678Z,6.22
2022-09-10T06:56:38.235Z,5.43
2022-09-10T06:59:06.089Z,5.28
2022-09-10T07:01:38.343Z,4.95
2022-09-10T07:04:06.898Z,4.63
2022-09-10T07:06:35.573Z,4.57
2022-09-10T07:09:11.837Z,8.02
2022-09-10T07:11:48.532Z,6.63
2022-09-10T07:14:18.119Z,5.82
2022-09-10T07:16:46.394Z,5.00
2022-09-10T07:19:15.253Z,5.90
2022-09-10T07:21:47.962Z,7.15
2022-09-10T07:24:17.014Z,7.72
2022-09-10T07:26:57.737Z,5.28
2022-09-10T07:29:25.754Z,5.68
2022-09-10T07:31:54.335Z,5.25
2022-09-10T07:34:24.905Z,7.88
2022-09-10T07:36:56.787Z,2.15
2022-09-10T07:39:25.860Z,6.35
2022-09-10T07:41:57.000Z,5.35
2022-09-10T07:44:28.336Z,6.75
2022-09-10T07:47:01.376Z,4.40
2022-09-10T07:49:29.411Z,4.10
2022-09-10T07:51:59.938Z,3.05
2022-09-10T07:54:32.712Z,5.18
2022-09-10T07:57:01.156Z,7.93
2022-09-10T07:59:28.808Z,4.03
2022-09-10T08:02:03.738Z,6.43
2022-09-10T08:04:36.524Z,7.50
2022-09-10T08:07:06.441Z,4.43
2022-09-10T08:09:37.886Z,4.65
2022-09-10T08:12:07.901Z,6.75
2022-09-10T08:14:39.111Z,5.70
2022-09-10T08:17:08.220Z,4.85
2022-09-10T08:19:40.528Z,2.75
2022-09-10T08:22:13.187Z,5.03
2022-09-10T08:24:47.892Z,3.30
2022-09-10T08:27:16.951Z,6.45
2022-09-10T08:29:44.694Z,3.58
2022-09-10T08:32:13.185Z,3.45
2022-09-10T08:34:41.442Z,5.40
2022-09-10T08:37:10.754Z,3.15
2022-09-10T08:39:41.888Z,2.67
2022-09-10T08:42:40.621Z,2.35
2022-09-10T08:45:29.237Z,6.57
2022-09-10T08:48:06.624Z,4.97
2022-09-10T08:50:50.181Z,7.63
2022-09-10T08:53:38.215Z,2.60
2022-09-10T08:56:21.530Z,3.22
2022-09-10T08:59:26.786Z,1.58
2022-09-10T09:02:01.097Z,1.33
2022-09-10T09:04:43.729Z,3.20
2022-09-10T09:07:19.887Z,3.50
2022-09-10T09:09:53.694Z,3.28
2022-09-10T09:12:36.746Z,3.05
2022-09-10T09:15:15.348Z,1.58
2022-09-10T09:17:53.887Z,2.60
2022-09-10T09:20:34.780Z,1.88
2022-09-10T09:23:25.094Z,1.90
2022-09-10T09:26:04.543Z,3.53
2022-09-10T09:28:39.384Z,1.65
2022-09-10T09:31:14.164Z,2.17
2022-09-10T09:33:42.976Z,1.35
2022-09-10T09:36:15.655Z,6.35
2022-09-10T09:38:49.096Z,1.45
2022-09-10T09:41:48.460Z,2.50
2022-09-10T09:44:36.579Z,1.60
2022-09-10T09:47:04.367Z,1.00
2022-09-10T09:49:34.021Z,0.90
2022-09-10T09:52:13.095Z,1.30
2022-09-10T09:55:13.397Z,1.65
2022-09-10T09:57:32.986Z,0.73
2022-09-10T10:00:36.691Z,1.40
2022-09-10T10:03:22.312Z,2.05
2022-09-10T10:05:49.767Z,1.08
2022-09-10T10:08:41.477Z,0.82
2022-09-10T10:11:09.657Z,0.80
2022-09-10T10:13:43.073Z,1.52
2022-09-10T10:16:29.356Z,1.10
2022-09-10T10:18:56.974Z,0.77
2022-09-10T10:21:32.978Z,1.00
2022-09-10T10:24:04.166Z,0.77
2022-09-10T10:26:36.234Z,0.40
2022-09-10T10:29:16.602Z,0.85
2022-09-10T10:31:47.181Z,1.83
2022-09-10T10:34:33.622Z,1.27
2022-09-10T10:37:19.932Z,1.08
2022-09-10T10:43:19.093Z,0.73
2022-09-10T10:45:53.865Z,1.27
2022-09-10T10:48:48.467Z,0.73
2022-09-10T10:51:28.007Z,1.42
2022-09-10T10:54:17.128Z,0.90
2022-09-10T10:57:09.457Z,1.38
2022-09-10T10:59:58.044Z,1.25
2022-09-10T11:02:54.480Z,1.70
2022-09-10T11:05:48.136Z,0.65
2022-09-10T11:08:27.865Z,1.27
2022-09-10T11:11:13.919Z,1.65
2022-09-10T11:13:55.859Z,0.88
2022-09-10T11:16:42.626Z,0.73
2022-09-10T11:19:19.952Z,2.08
2022-09-10T11:21:58.791Z,6.75
2022-09-10T11:24:33.732Z,4.18
2022-09-10T11:27:16.683Z,3.58
2022-09-10T11:30:05.971Z,2.28
2022-09-10T11:33:00.896Z,1.45
2022-09-10T11:35:33.927Z,3.00
2022-09-10T11:38:20.607Z,3.45
2022-09-10T11:41:00.433Z,1.70
2022-09-10T11:43:56.399Z,1.65
2022-09-10T11:46:32.271Z,3.67
2022-09-10T11:49:23.067Z,2.45
2022-09-10T11:51:51.343Z,1.05
2022-09-10T11:54:28.457Z,3.13
2022-09-10T11:57:06.709Z,2.80
2022-09-10T11:59:53.029Z,1.63
2022-09-10T12:02:51.338Z,3.80
2022-09-10T12:05:51.964Z,1.48
2022-09-10T12:09:03.736Z,2.03
2022-09-10T12:11:43.987Z,4.57
2022-09-10T12:14:17.601Z,4.88
2022-09-10T12:17:00.071Z,2.05
2022-09-10T12:19:38.601Z,1.52
2022-09-10T12:22:18.689Z,0.70
2022-09-10T12:25:05.833Z,2.33
2022-09-10T12:27:47.238Z,4.07
2022-09-10T12:30:30.774Z,2.05
2022-09-10T12:33:26.527Z,2.38
2022-09-10T12:35:54.042Z,1.13
2022-09-10T12:38:47.736Z,1.65
2022-09-10T12:41:21.354Z,1.38
2022-09-10T12:43:49.029Z,0.63
2022-09-10T12:46:19.666Z,1.30
2022-09-10T12:49:06.848Z,2.92
2022-09-10T12:51:53.545Z,3.40
2022-09-10T12:54:40.454Z,0.95
2022-09-10T12:57:12.854Z,2.92
2022-09-10T12:59:45.906Z,1.88
2022-09-10T13:03:00.914Z,2.38
2022-09-10T13:05:47.523Z,1.67
2022-09-10T13:08:42.022Z,2.05
2022-09-10T13:11:18.328Z,6.45
2022-09-10T13:13:54.754Z,3.15
2022-09-10T13:16:28.318Z,2.05
2022-09-10T13:19:19.558Z,1.92
2022-09-10T13:21:48.116Z,1.25
2022-09-10T13:24:34.068Z,2.78
2022-09-10T13:27:35.747Z,1.25
2022-09-10T13:30:18.184Z,2.83
2022-09-10T13:32:56.756Z,1.30
2022-09-10T13:36:05.594Z,1.90
2022-09-10T13:38:45.099Z,1.50
2022-09-10T13:41:50.122Z,0.75
2022-09-10T13:44:45.365Z,3.95
2022-09-10T13:47:28.137Z,2.13
2022-09-10T13:50:05.773Z,1.67
2022-09-10T13:52:36.353Z,3.90
2022-09-10T13:55:08.584Z,3.55
2022-09-10T13:57:47.613Z,2.03
2022-09-10T14:00:23.738Z,3.17
2022-09-10T14:02:56.096Z,2.38
2022-09-10T14:05:29.720Z,2.63
2022-09-10T14:08:01.840Z,1.00
2022-09-10T14:10:29.362Z,1.52
2022-09-10T14:12:58.507Z,1.42
2022-09-10T14:15:37.752Z,2.95
2022-09-10T14:18:05.723Z,2.83
2022-09-10T14:20:35.687Z,1.70
2022-09-10T14:23:12.507Z,1.65
2022-09-10T14:25:41.956Z,2.03
2022-09-10T14:28:12.644Z,1.95
2022-09-10T14:30:40.216Z,0.93
2022-09-10T14:33:29.875Z,2.60
2022-09-10T14:35:58.781Z,1.27
2022-09-10T14:38:34.296Z,2.53
2022-09-10T14:41:08.488Z,2.15
2022-09-10T14:43:38.598Z,1.48
2022-09-10T14:46:08.378Z,1.90
2022-09-10T14:49:01.529Z,2.00
2022-09-10T14:51:29.110Z,1.33
2022-09-10T14:53:58.578Z,2.20
2022-09-10T14:56:39.396Z,3.80
2022-09-10T14:59:38.709Z,1.63
2022-09-10T15:02:24.231Z,3.95
2022-09-10T15:04:51.843Z,1.90
2022-09-10T15:07:19.556Z,4.88
2022-09-10T15:09:47.218Z,1.58
2022-09-10T15:12:28.444Z,2.03
2022-09-10T15:14:57.559Z,2.75
2022-09-10T15:17:25.260Z,1.52
2022-09-10T15:19:53.536Z,1.75
2022-09-10T15:22:24.882Z,2.85
2022-09-10T15:25:10.802Z,1.90
2022-09-10T15:30:07.024Z,2.08
2022-09-10T15:32:34.534Z,1.25
2022-09-10T15:35:05.222Z,2.38
2022-09-10T15:37:33.023Z,1.85
2022-09-10T15:40:00.475Z,3.10
2022-09-10T15:42:28.021Z,2.53
2022-09-10T15:44:55.487Z,3.50
2022-09-10T15:47:23.409Z,1.23
2022-09-10T15:49:52.503Z,2.55
2022-09-10T15:52:20.001Z,1.60
2022-09-10T15:54:47.472Z,2.83
2022-09-10T15:57:14.976Z,5.40
2022-09-10T15:59:42.374Z,3.88
2022-09-10T16:02:13.169Z,1.42
2022-09-10T16:04:43.095Z,1.67
2022-09-10T16:07:11.051Z,1.75
2022-09-10T16:09:38.818Z,2.20
2022-09-10T16:12:06.952Z,0.80
2022-09-10T16:14:34.661Z,7.13
2022-09-10T16:17:02.470Z,3.92
2022-09-10T16:19:32.830Z,2.22
2022-09-10T16:22:00.422Z,1.15
2022-09-10T16:24:27.886Z,2.05
2022-09-10T16:26:55.465Z,2.85
2022-09-10T16:29:22.923Z,2.75
2022-09-10T16:31:50.550Z,3.22
2022-09-10T16:34:20.354Z,2.65
2022-09-10T16:36:49.062Z,3.67
2022-09-10T16:39:18.140Z,3.33
2022-09-10T16:41:47.838Z,2.13
2022-09-10T16:44:17.542Z,1.75
2022-09-10T16:46:46.339Z,1.73
2022-09-10T16:49:15.195Z,4.20
2022-09-10T16:51:43.523Z,1.42
2022-09-10T16:54:11.773Z,2.90
2022-09-10T16:56:45.080Z,3.47
2022-09-10T16:59:16.028Z,2.35
2022-09-10T17:01:45.064Z,1.60
2022-09-10T17:04:24.884Z,1.52
2022-09-10T17:06:57.480Z,1.75
2022-09-10T17:09:25.213Z,1.25
2022-09-10T17:11:52.732Z,1.92
2022-09-10T17:14:20.346Z,1.92
2022-09-10T17:16:48.794Z,1.63
2022-09-10T17:19:20.299Z,1.83
2022-09-10T17:21:51.409Z,3.45
2022-09-10T17:24:21.101Z,0.80
2022-09-10T17:26:49.166Z,4.53
2022-09-10T17:29:19.704Z,4.78
2022-09-10T17:31:48.115Z,2.45
2022-09-10T17:34:17.262Z,1.25
2022-09-10T17:36:47.428Z,1.85
2022-09-10T17:39:16.096Z,2.30
2022-09-10T17:41:44.170Z,2.20
2022-09-10T17:44:12.721Z,0.98
2022-09-10T17:46:42.753Z,2.58
2022-09-10T17:49:14.204Z,1.50
2022-09-10T17:51:42.713Z,3.72
2022-09-10T17:54:10.575Z,2.38
2022-09-10T17:56:38.234Z,0.60
2022-09-10T17:59:06.120Z,2.72
2022-09-10T18:01:39.217Z,3.03
2022-09-10T18:04:08.445Z,1.35
2022-09-10T18:06:36.684Z,1.42
2022-09-10T18:09:05.367Z,2.28
2022-09-10T18:11:35.758Z,1.13
2022-09-10T18:14:03.420Z,0.85
2022-09-10T18:16:33.334Z,1.17
2022-09-10T18:19:14.074Z,2.58
2022-09-10T18:21:43.979Z,1.48
2022-09-10T18:24:17.137Z,1.08
2022-09-10T18:26:46.654Z,1.05
2022-09-10T18:29:25.389Z,2.25
2022-09-10T18:31:55.912Z,1.38
2022-09-10T18:34:27.627Z,1.38
2022-09-10T18:36:57.899Z,0.90
2022-09-10T18:39:27.429Z,0.93
2022-09-10T18:41:57.193Z,0.63
2022-09-10T18:44:27.551Z,2.92
2022-09-10T18:46:56.065Z,1.80
2022-09-10T18:49:24.774Z,1.75
2022-09-10T18:51:54.222Z,1.50
2022-09-10T18:54:23.266Z,1.15
2022-09-10T18:56:51.325Z,1.48
2022-09-10T18:59:21.638Z,1.55
2022-09-10T19:01:50.800Z,1.67
2022-09-10T19:04:21.780Z,1.13
2022-09-10T19:06:50.195Z,1.55
2022-09-10T19:09:20.587Z,1.88
2022-09-10T19:11:49.580Z,1.10
2022-09-10T19:14:19.229Z,1.15
2022-09-10T19:16:48.448Z,1.73
2022-09-10T19:19:18.827Z,2.20
2022-09-10T19:21:48.451Z,2.05
2022-09-10T19:24:16.780Z,1.38
2022-09-10T19:26:44.975Z,1.83
2022-09-10T19:29:17.235Z,3.30
2022-09-10T19:31:47.464Z,2.30
2022-09-10T19:34:17.357Z,2.92
2022-09-10T19:36:45.219Z,4.28
2022-09-10T19:39:15.201Z,1.27
2022-09-10T19:41:44.355Z,1.40
2022-09-10T19:44:13.636Z,2.50
2022-09-10T19:46:41.586Z,1.27
2022-09-10T19:49:10.235Z,3.10
2022-09-10T19:51:38.857Z,3.90
2022-09-10T19:54:06.892Z,2.78
2022-09-10T19:56:41.275Z,1.63
2022-09-10T19:59:09.956Z,1.83
2022-09-10T20:01:40.897Z,1.75
2022-09-10T20:04:11.555Z,4.55
2022-09-10T20:06:39.696Z,1.40
2022-09-10T20:09:10.163Z,2.85
2022-09-10T20:11:38.295Z,1.55
2022-09-10T20:14:13.345Z,2.35
2022-09-10T20:16:43.109Z,3.13
2022-09-10T20:19:16.550Z,2.67
2022-09-10T20:21:44.523Z,2.70
2022-09-10T20:24:12.117Z,1.95
2022-09-10T20:26:43.802Z,5.60
2022-09-10T20:29:15.966Z,1.63
2022-09-10T20:31:44.490Z,4.32
2022-09-10T20:34:14.642Z,2.28
2022-09-10T20:36:42.417Z,2.88
2022-09-10T20:39:15.098Z,2.78
2022-09-10T20:41:43.298Z,1.63
2022-09-10T20:44:15.756Z,1.73
2022-09-10T20:46:43.547Z,2.15
2022-09-10T20:49:12.676Z,1.75
2022-09-10T20:51:40.631Z,4.20
2022-09-10T20:54:13.034Z,4.18
2022-09-10T20:56:41.125Z,4.20
2022-09-10T20:59:08.768Z,1.67
2022-09-10T21:01:36.387Z,2.72
2022-09-10T21:04:13.519Z,2.92
2022-09-10T21:06:41.292Z,2.40
2022-09-10T21:09:09.140Z,1.92
2022-09-10T21:11:37.808Z,1.55
2022-09-10T21:14:07.404Z,2.45
2022-09-10T21:16:41.333Z,2.00
2022-09-10T21:19:14.298Z,3.90
2022-09-10T21:21:43.445Z,3.03
2022-09-10T21:24:16.585Z,2.08
2022-09-10T21:26:44.487Z,4.45
2022-09-10T21:29:14.776Z,2.00
2022-09-10T21:31:43.498Z,2.65
2022-09-10T21:34:11.591Z,2.63
2022-09-10T21:36:41.127Z,3.15
2022-09-10T21:39:16.182Z,3.15
2022-09-10T21:41:52.439Z,3.90
2022-09-10T21:44:22.214Z,2.45
2022-09-10T21:46:50.191Z,2.03
2022-09-10T21:49:18.648Z,4.45
2022-09-10T21:51:46.782Z,2.00
2022-09-10T21:54:18.627Z,3.75
2022-09-10T21:56:46.835Z,3.67
2022-09-10T21:59:15.601Z,4.95
2022-09-10T22:01:45.798Z,3.05
2022-09-10T22:04:18.846Z,4.32
2022-09-10T22:06:49.283Z,6.22
2022-09-10T22:09:17.190Z,3.40
2022-09-10T22:11:47.242Z,4.60
2022-09-10T22:14:17.450Z,3.50
2022-09-10T22:16:45.551Z,5.18
2022-09-10T22:19:16.189Z,2.63
2022-09-10T22:21:43.870Z,2.92
2022-09-10T22:24:13.640Z,5.28
2022-09-10T22:26:44.398Z,3.10
2022-09-10T22:29:12.727Z,1.83
2022-09-10T22:31:40.347Z,2.20
2022-09-10T22:34:13.644Z,2.15
2022-09-10T22:36:43.074Z,2.42
2022-09-10T22:39:16.028Z,2.28
2022-09-10T22:41:45.586Z,4.65
2022-09-10T22:44:13.590Z,2.75
2022-09-10T22:46:41.753Z,2.58
2022-09-10T22:49:10.020Z,2.67
2022-09-10T22:51:41.016Z,3.50
2022-09-10T22:54:10.734Z,2.85
2022-09-10T22:56:39.577Z,1.77
2022-09-10T22:59:11.338Z,2.67
2022-09-10T23:01:39.222Z,9.30
2022-09-10T23:04:08.160Z,2.92
2022-09-10T23:06:37.811Z,3.50
2022-09-10T23:09:16.756Z,2.65
2022-09-10T23:11:46.046Z,1.83
2022-09-10T23:14:19.061Z,2.17
2022-09-10T23:16:49.044Z,2.20
2022-09-10T23:19:19.218Z,1.98
2022-09-10T23:21:49.687Z,1.80
2022-09-10T23:24:23.492Z,2.88
2022-09-10T23:26:51.994Z,3.05
2022-09-10T23:29:24.017Z,2.80
2022-09-10T23:31:54.685Z,2.08
2022-09-10T23:34:23.139Z,2.45
2022-09-10T23:36:51.693Z,1.80
2022-09-10T23:39:21.944Z,2.10
2022-09-10T23:41:52.078Z,2.20
2022-09-10T23:44:20.272Z,1.85
2022-09-10T23:46:48.183Z,1.83
2022-09-10T23:49:17.980Z,2.40
2022-09-10T23:51:45.755Z,2.25
2022-09-10T23:54:13.318Z,2.25
2022-09-10T23:56:41.170Z,2.85
2022-09-10T23:59:09.611Z,1.60
